createdAt,value
2018-11-13T00:02:03.352Z,12.86
2018-11-13T00:04:32.840Z,12.84
2018-11-13T00:07:02.298Z,12.90
2018-11-13T00:09:32.140Z,13.15
2018-11-13T00:12:20.619Z,13.40
2018-11-13T00:15:09.287Z,13.56
2018-11-13T00:17:39.068Z,13.61
2018-11-13T00:20:10.718Z,13.58
2018-11-13T00:22:59.460Z,13.62
2018-11-13T00:25:29.522Z,13.62
2018-11-13T00:27:59.021Z,13.75
2018-11-13T00:30:28.446Z,13.81
2018-11-13T00:32:57.888Z,14.04
2018-11-13T00:35:46.954Z,14.25
2018-11-13T00:38:16.427Z,14.41
2018-11-13T00:41:04.881Z,14.37
2018-11-13T00:43:34.637Z,14.37
2018-11-13T00:46:22.862Z,14.41
2018-11-13T00:48:53.029Z,14.41
2018-11-13T00:51:41.689Z,14.44
2018-11-13T00:54:30.737Z,14.42
2018-11-13T00:57:19.568Z,14.35
2018-11-13T01:00:08.345Z,14.35
2018-11-13T01:02:38.078Z,14.28
2018-11-13T01:05:26.830Z,13.78
2018-11-13T01:07:56.224Z,13.78
2018-11-13T01:10:45.296Z,13.53
2018-11-13T01:13:34.124Z,13.53
2018-11-13T01:16:22.592Z,13.39
2018-11-13T01:19:11.065Z,13.34
2018-11-13T01:21:59.551Z,13.34
2018-11-13T01:24:30.041Z,13.31
2018-11-13T01:26:59.763Z,13.23
2018-11-13T01:30:06.867Z,13.27
2018-11-13T01:32:38.831Z,13.31
2018-11-13T01:35:09.905Z,13.21
2018-11-13T01:37:39.783Z,13.10
2018-11-13T01:40:34.557Z,13.21
2018-11-13T01:43:04.289Z,13.23
2018-11-13T01:45:33.722Z,13.27
2018-11-13T01:48:03.544Z,13.34
2018-11-13T01:50:52.139Z,13.50
2018-11-13T01:53:21.561Z,13.78
2018-11-13T01:55:51.299Z,14.04
2018-11-13T01:58:39.661Z,14.11
2018-11-13T02:01:09.098Z,14.17
2018-11-13T02:03:38.535Z,14.17
2018-11-13T02:06:08.065Z,14.10
2018-11-13T03:48:01.743Z,12.34
2018-11-13T03:50:31.173Z,12.31
2018-11-13T03:53:19.846Z,12.31
2018-11-13T03:55:49.618Z,12.34
2018-11-13T03:58:19.470Z,12.26
2018-11-13T04:00:49.227Z,12.32
2018-11-13T04:03:37.447Z,12.31
2018-11-13T04:06:25.674Z,12.11
2018-11-13T04:08:55.414Z,12.20
2018-11-13T04:11:24.833Z,12.24
2018-11-13T04:14:13.325Z,12.12
2018-11-13T04:16:43.085Z,12.13
2018-11-13T04:19:31.590Z,12.14
2018-11-13T04:22:03.017Z,12.08
2018-11-13T04:24:51.422Z,12.03
2018-11-13T04:27:20.879Z,12.13
2018-11-13T04:29:50.652Z,12.18
2018-11-13T04:32:38.766Z,12.17
2018-11-13T04:35:09.463Z,12.17
2018-11-13T04:37:39.599Z,12.19
2018-11-13T04:40:28.774Z,11.98
2018-11-13T04:42:58.212Z,12.09
2018-11-13T04:45:28.284Z,12.09
2018-11-13T04:48:16.651Z,12.23
2018-11-13T04:50:46.438Z,12.16
2018-11-13T04:53:34.639Z,12.27
2018-11-13T04:56:04.362Z,12.26
2018-11-13T04:58:34.753Z,12.19
2018-11-13T05:01:04.852Z,12.21
2018-11-13T05:03:53.956Z,12.22
2018-11-13T05:06:42.437Z,12.20
2018-11-13T05:09:12.147Z,12.27
2018-11-13T05:11:42.546Z,12.26
2018-11-13T05:14:12.506Z,12.33
2018-11-13T05:16:42.643Z,12.34
2018-11-13T05:19:12.715Z,12.46
2018-11-13T05:21:42.405Z,12.43
2018-11-13T05:24:30.852Z,12.48
2018-11-13T05:27:19.185Z,12.46
2018-11-13T05:29:49.295Z,12.36
2018-11-13T05:32:38.314Z,12.25
2018-11-13T05:35:09.995Z,12.32
2018-11-13T05:37:40.292Z,12.28
2018-11-13T05:40:30.058Z,12.21
2018-11-13T05:42:59.794Z,12.24
2018-11-13T05:45:29.558Z,12.16
2018-11-13T05:48:17.710Z,12.14
2018-11-13T05:50:47.652Z,12.21
2018-11-13T05:53:36.370Z,12.15
2018-11-13T05:56:25.056Z,12.20
2018-11-13T05:58:55.530Z,12.22
2018-11-13T06:01:25.991Z,12.25
2018-11-13T06:03:55.473Z,12.20
2018-11-13T06:06:43.913Z,12.17
2018-11-13T06:09:32.554Z,12.11
2018-11-13T06:12:02.676Z,12.15
2018-11-13T06:14:51.094Z,12.18
2018-11-13T06:17:20.820Z,12.11
2018-11-13T06:19:50.625Z,12.06
2018-11-13T06:22:39.509Z,12.01
2018-11-13T06:25:11.037Z,11.87
2018-11-13T06:27:42.382Z,11.76
2018-11-13T06:30:31.823Z,11.71
2018-11-13T06:33:01.249Z,11.58
2018-11-13T06:35:30.675Z,11.59
2018-11-13T06:38:00.661Z,11.64
2018-11-13T06:55:48.389Z,11.52
2018-11-13T06:58:18.764Z,11.46
2018-11-13T07:00:48.907Z,11.49
2018-11-13T07:03:18.770Z,11.39
2018-11-13T07:05:49.138Z,11.36
2018-11-13T07:08:23.174Z,11.45
2018-11-13T07:10:52.756Z,11.37
2018-11-13T07:13:22.080Z,11.43
2018-11-13T07:15:51.813Z,11.42
2018-11-13T07:18:21.298Z,11.35
2018-11-13T07:20:50.691Z,11.29
2018-11-13T07:23:20.445Z,11.28
2018-11-13T07:25:49.919Z,11.33
2018-11-13T07:28:20.030Z,11.39
2018-11-13T07:30:49.756Z,11.47
2018-11-13T07:33:37.944Z,11.50
2018-11-13T07:36:26.292Z,11.40
2018-11-13T07:38:55.723Z,11.47
2018-11-13T07:41:25.159Z,11.35
2018-11-13T07:43:54.579Z,11.32
2018-11-13T07:46:24.007Z,11.41
2018-11-13T07:48:53.816Z,11.50
2018-11-13T07:51:23.884Z,11.37
2018-11-13T07:53:53.648Z,11.41
2018-11-13T07:56:23.554Z,11.47
2018-11-13T07:58:53.922Z,11.52
2018-11-13T08:01:23.644Z,11.62
2018-11-13T08:03:53.788Z,11.80
2018-11-13T08:06:23.780Z,11.73
2018-11-13T08:09:12.358Z,11.92
2018-11-13T08:12:01.037Z,12.08
2018-11-13T08:14:30.768Z,11.90
2018-11-13T08:17:00.191Z,11.87
2018-11-13T08:19:29.670Z,11.97
2018-11-13T08:21:59.164Z,12.01
2018-11-13T08:24:29.129Z,12.01
2018-11-13T08:26:58.944Z,12.07
2018-11-13T08:29:28.922Z,11.90
2018-11-13T08:31:58.284Z,11.96
2018-11-13T08:34:28.124Z,12.03
2018-11-13T08:36:57.625Z,12.23
2018-11-13T08:39:27.407Z,12.15
2018-11-13T08:42:15.513Z,12.11
2018-11-13T08:44:45.227Z,12.00
2018-11-13T08:47:14.650Z,11.78
2018-11-13T08:49:44.085Z,11.75
2018-11-13T08:52:13.816Z,11.77
2018-11-13T08:54:43.590Z,11.82
2018-11-13T08:57:31.986Z,11.82
2018-11-13T09:00:20.153Z,11.88
2018-11-13T09:02:50.133Z,12.08
2018-11-13T09:05:19.613Z,11.83
2018-11-13T09:08:07.766Z,11.86
2018-11-13T09:10:38.407Z,11.83
2018-11-13T09:13:07.908Z,11.98
2018-11-13T09:15:37.629Z,11.94
2018-11-13T09:18:07.904Z,11.92
2018-11-13T09:20:37.797Z,12.00
2018-11-13T09:23:25.978Z,11.92
2018-11-13T09:25:55.496Z,11.91
2018-11-13T09:28:25.545Z,11.88
2018-11-13T09:30:55.368Z,11.99
2018-11-13T09:33:24.528Z,11.92
2018-11-13T09:35:54.447Z,11.95
2018-11-13T09:38:24.740Z,11.90
2018-11-13T09:41:12.921Z,11.82
2018-11-13T09:43:43.024Z,11.75
2018-11-13T09:46:13.252Z,11.70
2018-11-13T09:48:43.436Z,11.80
2018-11-13T09:51:32.122Z,12.03
2018-11-13T09:54:01.570Z,11.95
2018-11-13T09:56:31.526Z,11.98
2018-11-13T09:59:19.892Z,11.95
2018-11-13T10:01:50.302Z,12.07
2018-11-13T10:04:39.437Z,12.09
2018-11-13T10:07:08.189Z,12.08
2018-11-13T10:09:37.609Z,12.16
2018-11-13T10:12:25.947Z,12.19
2018-11-13T10:14:55.377Z,12.42
2018-11-13T10:17:44.109Z,12.23
2018-11-13T10:20:32.308Z,12.51
2018-11-13T10:23:20.777Z,12.46
2018-11-13T10:25:50.265Z,12.30
2018-11-13T10:28:20.253Z,12.29
2018-11-13T10:31:08.723Z,12.18
2018-11-13T10:33:38.883Z,12.17
2018-11-13T10:36:08.391Z,12.18
2018-11-13T10:38:38.109Z,12.46
2018-11-13T10:41:08.621Z,12.32
2018-11-13T10:43:56.831Z,12.24
2018-11-13T10:46:45.045Z,12.14
2018-11-13T10:49:14.594Z,12.12
2018-11-13T10:52:03.391Z,12.29
2018-11-13T10:54:32.853Z,12.41
2018-11-13T10:57:03.036Z,12.38
2018-11-13T10:59:32.561Z,12.32
2018-11-13T11:02:40.010Z,12.43
2018-11-13T11:05:09.438Z,12.17
2018-11-13T11:07:39.725Z,12.56
2018-11-13T11:10:10.042Z,12.52
2018-11-13T11:12:40.550Z,12.49
2018-11-13T11:15:10.465Z,12.36
2018-11-13T11:17:40.789Z,12.31
2018-11-13T11:20:12.190Z,12.30
2018-11-13T11:23:00.505Z,12.29
2018-11-13T11:25:49.166Z,12.30
2018-11-13T11:28:18.596Z,12.27
2018-11-13T11:30:48.467Z,12.43
2018-11-13T11:33:37.202Z,12.24
2018-11-13T11:36:06.871Z,12.32
2018-11-13T11:38:56.008Z,12.53
2018-11-13T11:41:44.286Z,12.58
2018-11-13T11:44:14.503Z,12.56
2018-11-13T11:46:43.867Z,12.50
2018-11-13T11:49:14.184Z,12.39
2018-11-13T11:51:44.507Z,12.48
2018-11-13T11:54:13.980Z,12.71
2018-11-13T11:56:43.695Z,12.58
2018-11-13T11:59:13.266Z,12.53
2018-11-13T12:01:42.703Z,12.43
2018-11-13T12:04:31.499Z,12.41
2018-11-13T12:07:02.547Z,12.55
2018-11-13T12:09:32.463Z,12.46
2018-11-13T12:12:21.917Z,12.54
2018-11-13T12:14:51.989Z,12.64
2018-11-13T12:17:40.138Z,12.62
2018-11-13T12:20:11.629Z,12.64
2018-11-13T12:22:41.842Z,12.66
2018-11-13T12:25:13.286Z,12.69
2018-11-13T12:27:43.311Z,12.97
2018-11-13T12:30:31.771Z,13.03
2018-11-13T12:33:02.155Z,13.17
2018-11-13T12:35:31.913Z,13.06
2018-11-13T12:38:01.762Z,13.10
2018-11-13T12:40:31.657Z,13.29
2018-11-13T12:43:01.181Z,13.31
2018-11-13T12:45:30.886Z,13.29
2018-11-13T12:48:00.418Z,13.16
2018-11-13T12:51:07.604Z,13.18
2018-11-13T12:53:56.053Z,13.16
2018-11-13T12:56:25.938Z,13.32
2018-11-13T12:58:55.373Z,13.23
2018-11-13T13:01:43.801Z,13.38
2018-11-13T13:04:13.846Z,13.26
2018-11-13T13:06:44.348Z,13.16
2018-11-13T13:09:13.888Z,13.08
2018-11-13T13:12:02.277Z,13.15
2018-11-13T13:14:32.064Z,13.28
2018-11-13T13:17:21.660Z,13.20
2018-11-13T13:20:29.390Z,13.31
2018-11-13T13:23:17.855Z,13.36
2018-11-13T13:25:47.285Z,13.35
2018-11-13T13:28:35.789Z,13.09
2018-11-13T13:31:05.965Z,13.09
2018-11-13T13:33:35.507Z,13.07
2018-11-13T13:36:24.220Z,13.33
2018-11-13T13:38:54.327Z,13.47
2018-11-13T13:41:42.708Z,13.35
2018-11-13T13:44:12.565Z,13.29
2018-11-13T13:47:01.232Z,13.23
2018-11-13T13:49:49.671Z,13.41
2018-11-13T13:52:19.482Z,13.39
2018-11-13T13:54:49.049Z,13.42
2018-11-13T13:57:18.793Z,13.43
2018-11-13T14:00:08.299Z,13.53
2018-11-13T14:02:56.793Z,13.53
2018-11-13T14:05:45.688Z,13.53
2018-11-13T14:08:34.129Z,13.56
2018-11-13T14:11:03.578Z,13.56
2018-11-13T14:13:33.030Z,13.75
2018-11-13T14:16:21.172Z,13.59
2018-11-13T14:18:51.598Z,13.52
2018-11-13T14:21:21.152Z,13.57
2018-11-13T14:23:50.652Z,13.61
2018-11-13T14:26:20.062Z,13.64
2018-11-13T14:28:49.527Z,13.49
2018-11-13T14:31:19.013Z,13.43
2018-11-13T14:33:48.752Z,13.41
2018-11-13T14:36:37.104Z,13.22
2018-11-13T14:39:09.724Z,13.09
2018-11-13T14:41:39.439Z,13.20
2018-11-13T14:44:08.968Z,13.01
2018-11-13T14:46:57.565Z,13.04
2018-11-13T14:49:27.118Z,12.87
2018-11-13T14:51:56.844Z,12.71
2018-11-13T14:54:26.729Z,12.74
2018-11-13T14:57:15.262Z,12.69
2018-11-13T14:59:45.085Z,12.51
2018-11-13T15:02:14.567Z,12.44
2018-11-13T15:04:44.016Z,12.41
2018-11-13T15:07:14.165Z,12.35
2018-11-13T15:09:43.701Z,12.26
2018-11-13T15:12:31.846Z,12.07
2018-11-13T15:15:01.452Z,11.88
2018-11-13T15:17:30.852Z,11.67
2018-11-13T15:20:19.101Z,11.53
2018-11-13T15:23:07.345Z,11.47
2018-11-13T15:25:55.463Z,11.36
2018-11-13T15:28:44.261Z,11.34
2018-11-13T15:31:32.741Z,11.26
2018-11-13T15:34:02.543Z,11.31
2018-11-13T15:36:51.048Z,11.34
2018-11-13T15:39:21.309Z,11.52
2018-11-13T15:42:09.789Z,11.67
2018-11-13T15:44:58.511Z,11.90
2018-11-13T15:47:28.822Z,11.93
2018-11-13T15:50:35.679Z,11.97
2018-11-13T15:53:23.934Z,11.92
2018-11-13T15:56:12.362Z,11.83
2018-11-13T15:59:00.841Z,11.75
2018-11-13T16:01:49.268Z,11.62
2018-11-13T16:04:18.738Z,11.59
2018-11-13T16:06:48.949Z,11.40
2018-11-13T16:09:37.305Z,11.36
2018-11-13T16:12:06.990Z,11.19
2018-11-13T16:14:55.777Z,11.08
2018-11-13T16:17:26.496Z,11.10
2018-11-13T16:19:55.982Z,10.92
2018-11-13T16:22:25.431Z,10.89
2018-11-13T16:24:55.195Z,10.73
2018-11-13T16:27:25.080Z,10.69
2018-11-13T16:29:55.413Z,10.54
2018-11-13T16:32:25.096Z,10.52
2018-11-13T16:35:14.793Z,10.60
2018-11-13T16:37:45.240Z,10.59
2018-11-13T16:40:24.918Z,10.48
2018-11-13T16:42:54.663Z,10.43
2018-11-13T16:45:25.206Z,10.37
2018-11-13T16:47:55.767Z,10.32
2018-11-13T16:50:44.253Z,10.29
2018-11-13T16:53:13.697Z,10.36
2018-11-13T16:56:01.816Z,10.31
2018-11-13T16:58:50.492Z,10.17
2018-11-13T17:01:39.479Z,10.31
2018-11-13T17:04:09.029Z,10.32
2018-11-13T17:06:57.980Z,10.33
2018-11-13T17:09:46.907Z,10.30
2018-11-13T17:12:16.709Z,10.25
2018-11-13T17:15:05.211Z,10.32
2018-11-13T17:17:34.821Z,10.36
2018-11-13T17:20:04.437Z,10.35
2018-11-13T17:22:34.246Z,10.48
2018-11-13T17:25:03.703Z,10.58
2018-11-13T17:27:33.222Z,10.59
2018-11-13T17:30:02.811Z,10.59
2018-11-13T17:32:32.199Z,10.60
2018-11-13T17:35:01.669Z,10.63
2018-11-13T17:37:31.101Z,10.68
2018-11-13T17:40:00.876Z,10.66
2018-11-13T17:42:50.077Z,10.62
2018-11-13T17:45:38.172Z,10.62
2018-11-13T17:48:08.690Z,10.57
2018-11-13T17:50:39.357Z,10.50
2018-11-13T17:53:28.242Z,10.53
2018-11-13T17:56:16.208Z,10.58
2018-11-13T17:59:04.368Z,10.57
2018-11-13T18:01:34.161Z,10.61
2018-11-13T18:04:04.038Z,10.60
2018-11-13T18:06:52.795Z,10.66
2018-11-13T18:09:22.550Z,10.60
2018-11-13T18:11:51.988Z,10.54
2018-11-13T18:14:29.336Z,10.54
2018-11-13T18:16:59.080Z,10.51
2018-11-13T18:19:47.506Z,10.52
2018-11-13T18:22:17.333Z,10.49
2018-11-13T18:25:05.722Z,10.45
2018-11-13T18:27:53.928Z,10.46
2018-11-13T18:30:42.316Z,10.43
2018-11-13T18:33:12.074Z,10.33
2018-11-13T18:36:00.328Z,10.32
2018-11-13T18:38:30.402Z,10.28
2018-11-13T18:40:59.710Z,10.17
2018-11-13T18:43:29.183Z,10.12
2018-11-13T18:45:58.638Z,10.01
2018-11-13T18:48:28.078Z,10.05
2018-11-13T18:50:57.794Z,10.04
2018-11-13T18:53:27.615Z,9.94
2018-11-13T18:55:57.510Z,9.85
2018-11-13T18:58:28.058Z,9.88
2018-11-13T19:00:58.302Z,9.80
2018-11-13T19:03:28.114Z,9.89
2018-11-13T19:05:57.618Z,9.69
2018-11-13T19:08:27.410Z,9.71
2018-11-13T19:10:57.288Z,9.72
2018-11-13T19:13:28.046Z,9.56
2018-11-13T19:15:59.498Z,9.69
2018-11-13T19:18:48.524Z,9.69
2018-11-13T19:21:17.881Z,9.75
2018-11-13T19:23:47.870Z,9.78
2018-11-13T19:26:17.953Z,9.74
2018-11-13T19:28:47.756Z,9.78
2018-11-13T19:31:17.229Z,9.79
2018-11-13T19:33:47.052Z,9.83
2018-11-13T19:36:17.081Z,9.86
2018-11-13T19:38:46.629Z,9.87
2018-11-13T19:41:16.420Z,9.87
2018-11-13T19:43:46.243Z,9.88
2018-11-13T19:46:16.363Z,9.90
2018-11-13T19:48:45.997Z,9.84
2018-11-13T19:51:15.798Z,9.84
2018-11-13T19:53:45.619Z,9.78
2018-11-13T19:56:15.795Z,9.80
2018-11-13T19:58:45.235Z,9.78
2018-11-13T20:01:14.700Z,9.80
2018-11-13T20:03:44.262Z,9.70
2018-11-13T20:06:13.963Z,9.70
2018-11-13T20:08:43.978Z,9.67
2018-11-13T20:11:13.925Z,9.78
2018-11-13T20:13:44.343Z,9.73
2018-11-13T20:16:13.905Z,9.78
2018-11-13T20:18:43.387Z,9.65
2018-11-13T20:21:13.783Z,9.64
2018-11-13T20:23:43.254Z,9.77
2018-11-13T20:26:13.095Z,9.75
2018-11-13T20:28:42.711Z,9.78
2018-11-13T20:31:12.215Z,9.81
2018-11-13T20:33:42.016Z,9.60
2018-11-13T20:36:11.484Z,9.34
2018-11-13T20:38:40.912Z,9.23
2018-11-13T20:41:10.722Z,9.22
2018-11-13T20:43:40.569Z,9.15
2018-11-13T20:46:10.426Z,9.05
2018-11-13T20:48:40.646Z,8.86
2018-11-13T20:51:10.176Z,8.94
2018-11-13T20:53:39.650Z,8.76
2018-11-13T20:56:09.488Z,8.70
2018-11-13T20:58:39.215Z,8.67
2018-11-13T21:01:08.980Z,8.64
2018-11-13T21:03:38.759Z,8.54
2018-11-13T21:06:08.524Z,8.48
2018-11-13T21:08:38.303Z,8.37
2018-11-13T21:11:08.439Z,8.33
2018-11-13T21:13:38.208Z,8.29
2018-11-13T21:16:07.748Z,8.20
2018-11-13T21:18:37.743Z,8.15
2018-11-13T21:21:07.184Z,8.09
2018-11-13T21:23:36.775Z,8.07
2018-11-13T21:26:06.520Z,8.08
2018-11-13T21:28:35.958Z,8.04
2018-11-13T21:31:05.722Z,7.89
2018-11-13T21:33:35.513Z,7.93
2018-11-13T21:36:05.339Z,7.96
2018-11-13T21:38:35.099Z,7.97
2018-11-13T21:41:05.436Z,7.92
2018-11-13T21:43:35.096Z,7.89
2018-11-13T21:46:04.429Z,7.85
2018-11-13T21:48:52.886Z,7.86
2018-11-13T21:51:22.350Z,7.80
2018-11-13T21:53:51.791Z,7.84
2018-11-13T21:56:21.223Z,7.80
2018-11-13T21:58:50.979Z,7.79
2018-11-13T22:01:20.839Z,7.80
2018-11-13T22:04:08.902Z,7.72
2018-11-13T22:06:38.611Z,7.66
2018-11-13T22:09:10.638Z,7.66
2018-11-13T22:11:38.487Z,7.67
2018-11-13T22:14:08.183Z,7.65
2018-11-13T22:16:38.012Z,7.58
2018-11-13T22:19:07.657Z,7.56
2018-11-13T22:21:37.382Z,7.46
2018-11-13T22:24:07.153Z,7.45
2018-11-13T22:26:36.674Z,7.41
2018-11-13T22:29:25.414Z,7.33
2018-11-13T22:31:54.843Z,7.30
2018-11-13T22:34:24.533Z,7.34
2018-11-13T22:36:53.969Z,7.36
2018-11-13T22:39:23.395Z,7.40
2018-11-13T22:41:53.412Z,7.38
2018-11-13T22:44:23.247Z,7.35
2018-11-13T22:46:52.648Z,7.31
2018-11-13T22:49:22.082Z,7.33
2018-11-13T22:51:51.527Z,7.27
2018-11-13T22:54:21.241Z,7.27
2018-11-13T22:56:50.695Z,7.25
2018-11-13T22:59:20.119Z,7.24
2018-11-13T23:01:49.680Z,7.22
2018-11-13T23:04:20.010Z,7.19
2018-11-13T23:06:49.876Z,7.30
2018-11-13T23:09:37.997Z,7.19
2018-11-13T23:12:07.890Z,7.14
2018-11-13T23:14:56.344Z,7.20
2018-11-13T23:17:45.248Z,7.18
2018-11-13T23:20:19.058Z,7.19
2018-11-13T23:23:07.585Z,7.13
2018-11-13T23:25:37.728Z,7.14
2018-11-13T23:28:07.682Z,7.09
2018-11-13T23:30:37.048Z,7.04
2018-11-13T23:33:07.468Z,7.04
2018-11-13T23:35:36.981Z,7.06
2018-11-13T23:38:25.193Z,7.10
2018-11-13T23:40:55.148Z,7.11
2018-11-13T23:43:24.841Z,7.00
2018-11-13T23:45:54.628Z,6.98
2018-11-13T23:48:24.454Z,6.97
2018-11-13T23:50:53.942Z,6.93
2018-11-13T23:53:24.237Z,6.87
2018-11-13T23:55:54.058Z,6.86
2018-11-13T23:58:23.535Z,6.80
